Overview Statistics Trail Chart Weather Telemetry Raw packets
 

This is the latest recevied weather packets stored in our database for station/object IU1OLT-7. If no packets are shown the sender has not sent any weather packets the latest 10 day(s).

<< 7 8 9 10 11 12 13 >>
Time Temp. Humidity Pressure Rain* Wind** Luminosity Snow
1788380757 26.11° C 33% 1024.4 hPa - - - -
1788379857 26.67° C 32% 1024.4 hPa - - - -
1788378957 26.67° C 33% 1024.5 hPa - - - -
1788378057 25.56° C 36% 1024.5 hPa - - - -
1788377157 25.56° C 36% 1024.5 hPa - - - -
1788376257 25.56° C 46% 1024.4 hPa - - - -
1788375357 25° C 51% 1024.4 hPa - - - -
1788374457 25° C 55% 1024.2 hPa - - - -
1788373557 26.11° C 55% 1024.1 hPa - - - -
1788372657 26.11° C 56% 1024.2 hPa - - - -
1788371757 24.44° C 61% 1024.1 hPa - - - -
1788370857 25° C 57% 1024.1 hPa - - - -
1788369957 27.78° C 47% 1024 hPa - - - -
1788369057 26.11° C 54% 1024 hPa - - - -
1788368163 26.67° C 48% 1024.1 hPa - - - -
1788367257 33.33° C 35% 1024 hPa - - - -
1788366357 35° C 33% 1024 hPa - - - -
1788365457 36.11° C 30% 1024 hPa - - - -
1788364557 36.67° C 30% 1024 hPa - - - -
1788363657 35.56° C 30% 1024 hPa - - - -
1788362757 36.67° C 30% 1024.1 hPa - - - -
1788361857 36.11° C 29% 1024.1 hPa - - - -
1788360957 36.11° C 28% 1024.2 hPa - - - -
1788360057 36.67° C 28% 1024.2 hPa - - - -
1788359157 36.67° C 30% 1024.2 hPa - - - -

* Rain since midnight (hover to see other rain measurements)
** Current wind speed in m/s (hover to see current wind gust speed)